createdAt,value
2019-03-18T00:01:16.382Z,101246.09
2019-03-18T00:03:47.418Z,101202.20
2019-03-18T00:06:19.177Z,101259.45
2019-03-18T00:08:50.958Z,101246.95
2019-03-18T00:11:22.787Z,101248.96
2019-03-18T00:13:53.230Z,101256.94
2019-03-18T00:16:24.732Z,101258.95
2019-03-18T00:18:55.595Z,101260.81
2019-03-18T00:21:28.484Z,101254.87
2019-03-18T00:24:00.138Z,101254.87
2019-03-18T00:26:31.588Z,101258.00
2019-03-18T00:29:02.318Z,101271.16
2019-03-18T00:31:33.973Z,101266.80
2019-03-18T00:34:04.604Z,101270.03
2019-03-18T00:36:35.232Z,101266.08
2019-03-18T00:39:08.107Z,101264.06
2019-03-18T00:41:38.357Z,101262.11
2019-03-18T00:44:08.861Z,101265.58
2019-03-18T00:46:39.554Z,101267.08
2019-03-18T00:49:10.332Z,101263.76
2019-03-18T00:51:41.211Z,101264.90
2019-03-18T00:54:12.818Z,101271.61
2019-03-18T00:56:44.817Z,101281.44
2019-03-18T00:59:15.713Z,101283.72
2019-03-18T01:01:47.881Z,101282.59
2019-03-18T01:04:18.680Z,101289.20
2019-03-18T01:06:50.167Z,101288.97
2019-03-18T01:09:23.454Z,101290.06
2019-03-18T01:11:53.784Z,101287.33
2019-03-18T01:14:26.566Z,101290.06
2019-03-18T01:16:57.297Z,101291.20
2019-03-18T01:19:28.659Z,101287.28
2019-03-18T01:22:00.416Z,101289.10
2019-03-18T01:24:33.067Z,101285.78
2019-03-18T01:27:04.730Z,101284.55
2019-03-18T01:29:35.087Z,101281.46
2019-03-18T01:32:05.886Z,101283.37
2019-03-18T01:34:36.722Z,101280.14
2019-03-18T01:37:07.251Z,101278.00
2019-03-18T01:39:37.977Z,101280.27
2019-03-18T01:42:10.044Z,101271.95
2019-03-18T01:44:40.469Z,101279.01
2019-03-18T01:47:11.610Z,101279.78
2019-03-18T01:49:41.937Z,101277.91
2019-03-18T01:52:12.564Z,101280.05
2019-03-18T01:54:44.615Z,101282.41
2019-03-18T01:57:14.951Z,101276.09
2019-03-18T01:59:45.544Z,101278.05
2019-03-18T02:02:20.172Z,101274.41
2019-03-18T02:04:50.424Z,101277.78
2019-03-18T02:07:21.860Z,101283.38
2019-03-18T02:09:53.178Z,101290.80
2019-03-18T02:12:24.055Z,101285.23
2019-03-18T02:14:55.324Z,101290.97
2019-03-18T02:17:25.722Z,101295.06
2019-03-18T02:19:56.271Z,101300.79
2019-03-18T02:22:27.194Z,101305.39
2019-03-18T02:24:58.642Z,101305.39
2019-03-18T02:27:29.781Z,101312.94
2019-03-18T02:30:00.519Z,101312.94
2019-03-18T02:32:31.706Z,101321.63
2019-03-18T02:35:04.950Z,101321.00
2019-03-18T02:37:35.766Z,101324.49
2019-03-18T02:40:08.675Z,101329.82
2019-03-18T02:42:38.992Z,101331.55
2019-03-18T02:45:12.668Z,101330.92
2019-03-18T02:47:43.321Z,101337.02
2019-03-18T02:50:16.146Z,101340.70
2019-03-18T02:52:46.543Z,101341.61
2019-03-18T02:55:17.495Z,101339.98
2019-03-18T02:57:48.278Z,101347.36
2019-03-18T03:00:19.140Z,101343.50
2019-03-18T03:02:51.406Z,101349.56
2019-03-18T03:05:21.634Z,101349.59
2019-03-18T03:07:52.559Z,101351.09
2019-03-18T03:10:23.304Z,101350.83
2019-03-18T03:12:54.124Z,101348.63
2019-03-18T03:15:25.576Z,101351.00
2019-03-18T03:17:56.998Z,101347.70
2019-03-18T03:20:29.500Z,101350.16
2019-03-18T03:23:03.310Z,101351.73
2019-03-18T03:25:34.995Z,101344.44
2019-03-18T03:28:07.110Z,101353.29
2019-03-18T03:30:38.416Z,101358.75
2019-03-18T03:33:10.639Z,101360.58
2019-03-18T03:35:41.369Z,101364.08
2019-03-18T03:38:13.351Z,101356.78
2019-03-18T03:40:43.752Z,101363.70
2019-03-18T03:43:15.297Z,101377.72
2019-03-18T03:45:46.354Z,101364.97
2019-03-18T03:48:17.494Z,101377.62
2019-03-18T03:50:47.725Z,101373.78
2019-03-18T03:53:18.234Z,101388.80
2019-03-18T03:55:49.570Z,101387.41
2019-03-18T03:58:20.521Z,101383.08
2019-03-18T04:00:51.253Z,101389.53
2019-03-18T04:03:37.196Z,101386.16
2019-03-18T04:05:54.570Z,101391.45
2019-03-18T04:08:26.117Z,101392.42
2019-03-18T04:10:56.763Z,101391.59
2019-03-18T04:13:29.015Z,101393.52
2019-03-18T04:16:00.872Z,101392.86
2019-03-18T04:18:31.532Z,101394.31
2019-03-18T04:21:02.178Z,101395.87
2019-03-18T04:23:32.758Z,101397.59
2019-03-18T04:26:03.900Z,101407.98
2019-03-18T04:28:34.737Z,101407.52
2019-03-18T04:31:05.601Z,101410.47
2019-03-18T04:33:39.022Z,101409.81
2019-03-18T04:36:09.491Z,101412.34
2019-03-18T04:38:40.458Z,101417.99
2019-03-18T04:41:11.463Z,101413.17
2019-03-18T04:43:41.894Z,101424.76
2019-03-18T04:46:12.419Z,101429.06
2019-03-18T04:48:43.560Z,101427.97
2019-03-18T04:51:15.038Z,101438.82
2019-03-18T04:53:45.119Z,101442.83
2019-03-18T04:56:15.964Z,101445.55
2019-03-18T04:58:46.595Z,101442.77
2019-03-18T05:01:17.431Z,101443.44
2019-03-18T05:03:49.256Z,101448.15
2019-03-18T05:06:22.528Z,101451.20
2019-03-18T05:08:53.667Z,101450.11
2019-03-18T05:11:26.192Z,101444.19
2019-03-18T05:13:56.464Z,101441.81
2019-03-18T05:16:27.456Z,101444.67
2019-03-18T05:18:58.046Z,101451.02
2019-03-18T05:21:29.886Z,101450.87
2019-03-18T05:24:00.879Z,101456.25
2019-03-18T05:26:31.613Z,101453.99
2019-03-18T05:29:03.535Z,101463.38
2019-03-18T05:31:34.001Z,101464.80
2019-03-18T05:34:06.632Z,101476.02
2019-03-18T05:36:37.417Z,101472.80
2019-03-18T05:39:08.249Z,101474.33
2019-03-18T05:41:38.937Z,101475.25
2019-03-18T05:44:10.049Z,101479.36
2019-03-18T05:46:40.646Z,101481.40
2019-03-18T05:49:11.485Z,101476.16
2019-03-18T05:51:42.664Z,101482.70
2019-03-18T05:54:13.152Z,101486.50
2019-03-18T05:56:43.887Z,101483.10
2019-03-18T05:59:14.756Z,101494.27
2019-03-18T06:01:45.556Z,101492.61
2019-03-18T06:04:16.284Z,101501.29
2019-03-18T06:06:47.039Z,101505.38
2019-03-18T06:09:17.607Z,101507.30
2019-03-18T06:11:48.483Z,101516.61
2019-03-18T06:14:19.113Z,101516.33
2019-03-18T06:16:50.255Z,101513.47
2019-03-18T06:19:21.041Z,101515.78
2019-03-18T06:21:52.336Z,101515.78
2019-03-18T06:24:23.625Z,101523.95
2019-03-18T06:26:54.759Z,101523.69
2019-03-18T06:29:27.551Z,101524.06
2019-03-18T06:31:58.139Z,101528.67
2019-03-18T06:34:29.274Z,101538.66
2019-03-18T06:37:01.461Z,101543.43
2019-03-18T06:39:33.437Z,101542.09
2019-03-18T06:42:04.732Z,101538.89
2019-03-18T06:44:35.789Z,101537.98
2019-03-18T06:47:06.686Z,101541.61
2019-03-18T06:49:37.967Z,101549.26
2019-03-18T06:52:11.367Z,101547.81
2019-03-18T06:54:41.788Z,101544.59
2019-03-18T06:57:12.523Z,101550.31
2019-03-18T06:59:42.945Z,101539.27
2019-03-18T07:02:13.681Z,101544.80
2019-03-18T07:04:44.523Z,101546.39
2019-03-18T07:07:15.247Z,101547.78
2019-03-18T07:09:45.966Z,101548.48
2019-03-18T07:12:17.636Z,101542.39
2019-03-18T07:14:48.162Z,101544.98
2019-03-18T07:17:18.897Z,101548.09
2019-03-18T07:19:50.456Z,101542.95
2019-03-18T07:22:20.872Z,101546.20
2019-03-18T07:24:51.408Z,101544.77
2019-03-18T07:27:22.338Z,101549.31
2019-03-18T07:29:52.848Z,101551.41
2019-03-18T07:32:25.337Z,101555.73
2019-03-18T07:34:58.070Z,101557.28
2019-03-18T07:37:28.861Z,101567.84
2019-03-18T07:40:01.270Z,101564.91
2019-03-18T07:42:32.057Z,101572.14
2019-03-18T07:45:04.037Z,101568.95
2019-03-18T07:47:34.297Z,101569.66
2019-03-18T07:50:08.145Z,101573.52
2019-03-18T07:52:38.776Z,101568.34
2019-03-18T07:55:11.455Z,101558.45
2019-03-18T07:57:43.231Z,101563.92
2019-03-18T08:00:16.706Z,101560.64
2019-03-18T08:02:48.170Z,101564.00
2019-03-18T08:05:18.461Z,101563.27
2019-03-18T08:07:49.422Z,101570.66
2019-03-18T08:10:20.316Z,101571.77
2019-03-18T08:12:51.617Z,101571.70
2019-03-18T08:15:22.754Z,101574.37
2019-03-18T08:17:55.863Z,101581.88
2019-03-18T08:20:26.842Z,101579.60
2019-03-18T08:23:01.467Z,101575.36
2019-03-18T08:25:34.962Z,101575.70
2019-03-18T08:28:10.816Z,101578.64
2019-03-18T08:30:44.421Z,101580.77
2019-03-18T08:33:21.083Z,101580.77
2019-03-18T08:35:54.056Z,101579.01
2019-03-18T08:38:27.700Z,101578.70
2019-03-18T08:40:58.009Z,101586.39
2019-03-18T08:43:29.982Z,101580.41
2019-03-18T08:46:00.939Z,101575.48
2019-03-18T08:48:32.471Z,101586.75
2019-03-18T08:51:02.899Z,101580.16
2019-03-18T08:53:33.636Z,101583.95
2019-03-18T08:56:06.648Z,101592.31
2019-03-18T08:58:37.213Z,101582.56
2019-03-18T09:01:08.996Z,101587.19
2019-03-18T09:03:39.736Z,101590.42
2019-03-18T09:06:13.139Z,101596.19
2019-03-18T09:08:44.579Z,101593.42
2019-03-18T09:11:15.627Z,101602.61
2019-03-18T09:13:46.003Z,101602.44
2019-03-18T09:16:17.811Z,101607.81
2019-03-18T09:18:49.051Z,101600.52
2019-03-18T09:21:21.620Z,101602.47
2019-03-18T09:23:52.720Z,101597.59
2019-03-18T09:26:26.422Z,101594.94
2019-03-18T09:28:58.630Z,101598.88
2019-03-18T09:31:32.639Z,101603.20
2019-03-18T09:34:03.481Z,101602.53
2019-03-18T09:36:34.414Z,101593.19
2019-03-18T09:39:08.936Z,101600.92
2019-03-18T09:41:40.105Z,101595.31
2019-03-18T09:44:11.130Z,101595.09
2019-03-18T09:46:43.499Z,101592.48
2019-03-18T09:49:21.480Z,101586.05
2019-03-18T09:51:47.513Z,101587.29
2019-03-18T09:54:18.042Z,101590.59
2019-03-18T09:56:48.772Z,101587.02
2019-03-18T09:59:19.646Z,101596.73
2019-03-18T10:01:51.060Z,101598.66
2019-03-18T10:04:21.587Z,101603.29
2019-03-18T10:06:53.449Z,101601.69
2019-03-18T10:09:24.074Z,101593.48
2019-03-18T10:11:54.706Z,101564.18
2019-03-18T10:14:25.440Z,101585.53
2019-03-18T10:16:56.070Z,101594.97
2019-03-18T10:19:33.526Z,101582.83
2019-03-18T10:22:00.917Z,101585.41
2019-03-18T10:24:31.336Z,101580.52
2019-03-18T10:27:02.993Z,101580.80
2019-03-18T10:29:34.131Z,101588.66
2019-03-18T10:32:05.021Z,101586.61
2019-03-18T10:34:35.806Z,101574.72
2019-03-18T10:37:06.763Z,101569.17
2019-03-18T10:39:37.369Z,101576.77
2019-03-18T10:42:08.557Z,101571.28
2019-03-18T10:44:41.045Z,101574.52
2019-03-18T10:47:11.706Z,101566.67
2019-03-18T10:49:46.539Z,101572.53
2019-03-18T10:52:16.375Z,101568.40
2019-03-18T10:54:47.604Z,101568.95
2019-03-18T10:57:18.041Z,101569.94
2019-03-18T10:59:50.262Z,101570.20
2019-03-18T11:02:21.194Z,101573.20
2019-03-18T11:04:52.795Z,101577.08
2019-03-18T11:07:25.776Z,101570.24
2019-03-18T11:09:57.630Z,101568.13
2019-03-18T11:12:28.977Z,101563.45
2019-03-18T11:15:00.895Z,101571.71
2019-03-18T11:17:31.441Z,101569.30
2019-03-18T11:20:05.075Z,101563.70
2019-03-18T11:22:44.194Z,101564.11
2019-03-18T11:25:15.901Z,101559.31
2019-03-18T11:27:47.866Z,101559.70
2019-03-18T11:30:20.392Z,101555.70
2019-03-18T11:32:53.270Z,101552.09
2019-03-18T11:35:25.052Z,101551.66
2019-03-18T11:37:56.790Z,101556.59
2019-03-18T11:40:28.460Z,101548.91
2019-03-18T11:43:01.015Z,101546.38
2019-03-18T11:45:34.314Z,101546.34
2019-03-18T11:48:05.663Z,101550.42
2019-03-18T11:50:37.087Z,101551.19
2019-03-18T11:53:14.137Z,101543.16
2019-03-18T11:55:43.312Z,101550.05
2019-03-18T11:58:14.097Z,101547.55
2019-03-18T12:00:45.869Z,101538.06
2019-03-18T12:03:16.502Z,101539.58
2019-03-18T12:05:48.867Z,101542.81
2019-03-18T12:08:19.192Z,101544.71
2019-03-18T12:10:50.644Z,101536.77
2019-03-18T12:13:21.595Z,101543.95
2019-03-18T12:15:52.310Z,101537.09
2019-03-18T12:18:23.863Z,101542.73
2019-03-18T12:20:56.029Z,101546.13
2019-03-18T12:23:28.325Z,101538.72
2019-03-18T12:25:59.624Z,101547.72
2019-03-18T12:28:30.897Z,101555.60
2019-03-18T12:31:01.727Z,101545.09
2019-03-18T12:33:33.185Z,101545.09
2019-03-18T12:36:09.346Z,101549.23
2019-03-18T12:38:41.396Z,101504.44
2019-03-18T12:41:12.126Z,101560.26
2019-03-18T12:43:45.332Z,101544.12
2019-03-18T12:46:15.743Z,101532.63
2019-03-18T12:48:47.910Z,101531.69
2019-03-18T12:51:19.265Z,101535.14
2019-03-18T12:53:50.107Z,101540.84
2019-03-18T12:56:21.337Z,101533.70
2019-03-18T12:58:51.986Z,101528.28
2019-03-18T13:01:23.528Z,101538.45
2019-03-18T13:03:54.250Z,101533.34
2019-03-18T13:06:24.885Z,101520.09
2019-03-18T13:08:55.820Z,101528.75
2019-03-18T13:11:26.335Z,101523.49
2019-03-18T13:13:57.077Z,101527.86
2019-03-18T13:16:27.707Z,101525.37
2019-03-18T13:18:58.441Z,101524.32
2019-03-18T13:21:30.839Z,101520.66
2019-03-18T13:24:05.742Z,101512.42
2019-03-18T13:26:36.594Z,101508.67
2019-03-18T13:29:07.046Z,101503.45
2019-03-18T13:31:37.835Z,101514.99
2019-03-18T13:34:08.972Z,101505.05
2019-03-18T13:36:39.740Z,101509.02
2019-03-18T13:39:10.591Z,101510.07
2019-03-18T13:41:42.727Z,101505.83
2019-03-18T13:44:13.665Z,101495.67
2019-03-18T13:46:45.815Z,101500.53
2019-03-18T13:49:17.946Z,101496.19
2019-03-18T13:51:48.475Z,101501.03
2019-03-18T13:54:20.165Z,101502.19
2019-03-18T13:56:51.397Z,101489.14
2019-03-18T13:59:22.251Z,101492.55
2019-03-18T14:01:52.979Z,101498.52
2019-03-18T14:04:25.466Z,101514.50
2019-03-18T14:06:56.183Z,101503.09
2019-03-18T14:09:26.812Z,101504.59
2019-03-18T14:11:59.789Z,101495.09
2019-03-18T14:14:30.533Z,101505.13
2019-03-18T14:17:02.121Z,101503.47
2019-03-18T14:19:32.925Z,101494.69
2019-03-18T14:22:03.693Z,101491.98
2019-03-18T14:24:34.606Z,101496.86
2019-03-18T14:27:05.521Z,101488.98
2019-03-18T14:29:36.062Z,101495.81
2019-03-18T14:32:08.738Z,101492.00
2019-03-18T14:34:39.173Z,101498.36
2019-03-18T14:37:11.653Z,101496.22
2019-03-18T14:39:42.206Z,101497.34
2019-03-18T14:42:12.907Z,101496.88
2019-03-18T14:44:45.890Z,101501.76
2019-03-18T14:47:16.728Z,101494.51
2019-03-18T14:49:47.666Z,101477.42
2019-03-18T14:52:18.095Z,101496.58
2019-03-18T14:54:49.684Z,101505.47
2019-03-18T14:57:20.887Z,101493.52
2019-03-18T14:59:53.070Z,101495.47
2019-03-18T15:02:23.482Z,101508.73
2019-03-18T15:04:54.626Z,101506.48
2019-03-18T15:07:25.460Z,101512.59
2019-03-18T15:09:56.425Z,101518.42
2019-03-18T15:12:27.255Z,101520.44
2019-03-18T15:14:58.672Z,101516.91
2019-03-18T15:17:31.148Z,101522.27
2019-03-18T15:20:02.399Z,101530.48
2019-03-18T15:22:32.924Z,101532.97
2019-03-18T15:25:03.533Z,101522.95
2019-03-18T15:27:34.112Z,101530.19
2019-03-18T15:30:11.549Z,101538.11
2019-03-18T15:32:42.816Z,101537.22
2019-03-18T15:35:14.367Z,101551.41
2019-03-18T15:37:46.235Z,101545.67
2019-03-18T15:40:20.031Z,101545.66
2019-03-18T15:42:50.663Z,101549.32
2019-03-18T15:45:26.006Z,101549.52
2019-03-18T15:47:56.537Z,101548.29
2019-03-18T15:50:27.675Z,101546.15
2019-03-18T15:52:58.534Z,101554.19
2019-03-18T15:55:30.304Z,101550.82
2019-03-18T15:58:01.307Z,101556.78
2019-03-18T16:00:32.812Z,101556.11
2019-03-18T16:03:04.713Z,101555.61
2019-03-18T16:05:35.452Z,101560.47
2019-03-18T16:08:06.063Z,101559.47
2019-03-18T16:10:36.722Z,101570.25
2019-03-18T16:13:07.658Z,101571.72
2019-03-18T16:15:38.284Z,101573.97
2019-03-18T16:18:09.006Z,101571.52
2019-03-18T16:20:43.122Z,101578.52
2019-03-18T16:23:14.369Z,101573.17
2019-03-18T16:25:46.735Z,101579.59
2019-03-18T16:28:19.416Z,101579.04
2019-03-18T16:30:50.150Z,101583.79
2019-03-18T16:33:23.004Z,101585.37
2019-03-18T16:35:56.413Z,101584.41
2019-03-18T16:38:27.061Z,101590.83
2019-03-18T16:40:58.602Z,101599.39
2019-03-18T16:43:29.443Z,101599.41
2019-03-18T16:46:01.029Z,101600.13
2019-03-18T16:48:31.588Z,101598.63
2019-03-18T16:51:02.360Z,101606.80
2019-03-18T16:53:34.222Z,101606.47
2019-03-18T16:56:07.403Z,101608.08
2019-03-18T16:58:38.444Z,101613.52
2019-03-18T17:01:10.198Z,101622.69
2019-03-18T17:03:40.728Z,101622.17
2019-03-18T17:06:11.561Z,101621.68
2019-03-18T17:08:42.210Z,101618.95
2019-03-18T17:11:12.931Z,101616.66
2019-03-18T17:13:44.794Z,101623.32
2019-03-18T17:16:16.134Z,101624.70
2019-03-18T17:18:46.460Z,101630.98
2019-03-18T17:21:17.085Z,101636.03
2019-03-18T17:23:49.211Z,101634.15
2019-03-18T17:26:22.438Z,101633.97
2019-03-18T17:28:53.899Z,101637.59
2019-03-18T17:31:24.825Z,101635.75
2019-03-18T17:33:55.659Z,101610.05
2019-03-18T17:36:26.367Z,101644.60
2019-03-18T17:38:57.999Z,101644.96
2019-03-18T17:41:28.755Z,101643.22
2019-03-18T17:44:00.537Z,101647.58
2019-03-18T17:46:31.271Z,101651.91
2019-03-18T17:49:02.006Z,101651.88
2019-03-18T17:51:33.474Z,101652.59
2019-03-18T17:54:04.494Z,101652.27
2019-03-18T17:56:36.760Z,101658.17
2019-03-18T17:59:07.062Z,101659.19
2019-03-18T18:01:38.325Z,101656.58
2019-03-18T18:04:11.986Z,101666.59
2019-03-18T18:06:42.092Z,101664.84
2019-03-18T18:09:12.471Z,101667.81
2019-03-18T18:11:43.345Z,101667.63
2019-03-18T18:14:14.448Z,101666.59
2019-03-18T18:16:44.766Z,101672.14
2019-03-18T18:19:16.255Z,101675.13
2019-03-18T18:21:47.062Z,101680.14
2019-03-18T18:24:18.344Z,101686.22
2019-03-18T18:26:49.348Z,101690.20
2019-03-18T18:29:20.075Z,101697.66
2019-03-18T18:31:51.111Z,101704.22
2019-03-18T18:34:21.943Z,101705.27
2019-03-18T18:36:52.581Z,101708.91
2019-03-18T18:39:23.307Z,101714.26
2019-03-18T18:41:53.936Z,101712.52
2019-03-18T18:44:24.625Z,101711.14
2019-03-18T18:46:55.153Z,101715.80
2019-03-18T18:49:26.470Z,101730.95
2019-03-18T18:51:59.533Z,101716.98
2019-03-18T18:54:32.451Z,101715.75
2019-03-18T18:57:03.351Z,101715.72
2019-03-18T18:59:34.026Z,101716.41
2019-03-18T19:02:04.711Z,101717.45
2019-03-18T19:04:35.034Z,101722.08
2019-03-18T19:07:08.969Z,101718.98
2019-03-18T19:09:39.425Z,101727.61
2019-03-18T19:12:13.482Z,101722.22
2019-03-18T19:14:43.909Z,101731.38
2019-03-18T19:17:16.259Z,101729.81
2019-03-18T19:19:49.975Z,101740.47
2019-03-18T19:22:20.300Z,101729.06
2019-03-18T19:24:51.135Z,101737.66
2019-03-18T19:27:22.175Z,101682.11
2019-03-18T19:29:53.626Z,101734.36
2019-03-18T19:32:25.894Z,101730.34
2019-03-18T19:34:56.630Z,101732.23
2019-03-18T19:37:27.567Z,101734.64
2019-03-18T19:39:58.303Z,101735.97
2019-03-18T19:42:29.136Z,101734.58
2019-03-18T19:44:59.864Z,101732.63
2019-03-18T19:47:30.701Z,101727.23
2019-03-18T19:50:02.663Z,101727.01
2019-03-18T19:52:33.902Z,101724.25
2019-03-18T19:55:05.154Z,101730.73
2019-03-18T19:57:35.985Z,101724.68
2019-03-18T20:00:23.818Z,101727.77
2019-03-18T20:02:54.550Z,101728.27
2019-03-18T20:05:25.386Z,101733.78
2019-03-18T20:07:56.835Z,101730.18
2019-03-18T20:10:27.570Z,101730.81
2019-03-18T20:12:58.450Z,101734.25
2019-03-18T20:15:31.488Z,101735.77
2019-03-18T20:18:02.938Z,101736.81
2019-03-18T20:20:33.168Z,101728.87
2019-03-18T20:23:04.697Z,101737.94
2019-03-18T20:25:36.616Z,101743.42
2019-03-18T20:28:07.404Z,101742.40
2019-03-18T20:30:37.911Z,101739.64
2019-03-18T20:33:08.708Z,101741.51
2019-03-18T20:35:39.298Z,101747.12
2019-03-18T20:38:10.030Z,101748.67
2019-03-18T20:40:40.502Z,101743.98
2019-03-18T20:43:11.199Z,101743.97
2019-03-18T20:45:42.126Z,101740.80
2019-03-18T20:48:12.853Z,101742.14
2019-03-18T20:50:43.348Z,101735.44
2019-03-18T20:53:15.651Z,101741.09
2019-03-18T20:55:46.587Z,101744.45
2019-03-18T20:58:16.806Z,101743.08
2019-03-18T21:00:47.550Z,101741.16
2019-03-18T21:03:18.249Z,101747.22
2019-03-18T21:05:48.864Z,101751.16
2019-03-18T21:08:20.330Z,101745.52
2019-03-18T21:10:52.214Z,101744.13
2019-03-18T21:13:22.845Z,101739.65
2019-03-18T21:15:53.531Z,101744.42
2019-03-18T21:18:24.715Z,101751.98
2019-03-18T21:20:55.448Z,101755.90
2019-03-18T21:23:26.341Z,101753.78
2019-03-18T21:25:56.843Z,101766.66
2019-03-18T21:28:28.979Z,101768.91
2019-03-18T21:30:59.503Z,101767.45
2019-03-18T21:33:30.422Z,101772.73
2019-03-18T21:36:01.274Z,101782.34
2019-03-18T21:38:32.013Z,101772.47
2019-03-18T21:41:02.681Z,101770.65
2019-03-18T21:43:33.368Z,101775.45
2019-03-18T21:46:04.519Z,101777.75
2019-03-18T21:48:35.252Z,101777.23
2019-03-18T21:51:08.010Z,101771.65
2019-03-18T21:53:38.562Z,101782.95
2019-03-18T21:56:10.244Z,101781.38
2019-03-18T21:58:40.663Z,101779.02
2019-03-18T22:01:11.574Z,101787.03
2019-03-18T22:03:42.613Z,101786.75
2019-03-18T22:06:13.141Z,101780.13
2019-03-18T22:08:44.185Z,101769.66
2019-03-18T22:11:14.812Z,101788.16
2019-03-18T22:13:45.432Z,101786.97
2019-03-18T22:16:16.068Z,101788.77
2019-03-18T22:18:47.415Z,101788.00
2019-03-18T22:21:17.736Z,101789.73
2019-03-18T22:23:49.528Z,101778.31
2019-03-18T22:26:21.566Z,101774.25
2019-03-18T22:28:52.086Z,101781.08
2019-03-18T22:31:22.721Z,101782.60
2019-03-18T22:33:54.102Z,101777.41
2019-03-18T22:36:25.663Z,101778.84
2019-03-18T22:38:56.350Z,101791.52
2019-03-18T22:41:26.977Z,101795.14
2019-03-18T22:43:57.815Z,101792.23
2019-03-18T22:46:28.644Z,101797.31
2019-03-18T22:49:01.663Z,101782.05
2019-03-18T22:51:32.676Z,101794.14
2019-03-18T22:54:03.107Z,101799.94
2019-03-18T22:56:36.291Z,101799.33
2019-03-18T22:59:07.851Z,101799.41
2019-03-18T23:01:39.258Z,101789.48
2019-03-18T23:04:11.353Z,101787.69
2019-03-18T23:06:42.293Z,101789.14
2019-03-18T23:09:13.052Z,101793.37
2019-03-18T23:11:43.960Z,101787.62
2019-03-18T23:14:17.967Z,101788.89
2019-03-18T23:16:48.885Z,101791.93
2019-03-18T23:19:21.002Z,101789.41
2019-03-18T23:21:54.264Z,101787.28
2019-03-18T23:24:25.620Z,101791.14
2019-03-18T23:26:56.344Z,101788.47
2019-03-18T23:29:28.518Z,101787.16
2019-03-18T23:32:00.267Z,101791.64
2019-03-18T23:34:30.693Z,101781.95
2019-03-18T23:37:04.292Z,101791.28
2019-03-18T23:39:34.819Z,101788.47
2019-03-18T23:42:07.294Z,101785.65
2019-03-18T23:44:37.699Z,101786.73
2019-03-18T23:47:08.758Z,101789.91
2019-03-18T23:49:39.488Z,101789.09
2019-03-18T23:52:10.221Z,101780.17
2019-03-18T23:54:41.675Z,101774.56
2019-03-18T23:57:12.814Z,101774.42
2019-03-18T23:59:45.645Z,101767.20
